To NAV CANADA Home Page Login to a new session Search on AWWS site Feedback and Comments Disclaimer Vers la page française équivalente Tips FAQ What's new on the site To the Forecasts and Observations / NOTAM section To "File a Flight Plan" website Publications and other links Update of the User's profile FIC Telephone Numbers My Weather Data Folder Route Weather Data Regional Weather Data Local Weather Data To the Forecasts and Observations / NOTAM section
Request Generated 01/21/2017 at 02:12:16 UTC . Weather information available at that time is displayed.

METAR/TAF

ROBERVAL/QC    

METAR CYRJ 210200Z 22005KT 170V250 30SM OVC013 M00/M03 A2978 RMK SC8
SLP095=
METAR CYRJ 210100Z 21008KT 160V250 30SM OVC014 M00/M03 A2977 RMK SC8
SLP094=
METAR CYRJ 210000Z 18006KT 140V210 30SM OVC017 00/M03 A2979 RMK SC8
SLP098=

TAF CYRJ 201938Z 2020/2103 18008KT P6SM OVC020 TEMPO 2020/2103 OVC025
RMK NXT FCST WILL BE ISSUED AT 211245Z=
Your time UTC time
Weather data provided by Environment Canada and NAV CANADA